Terminal Aerodrome Forecast
Issued by NWS

Home | Current Version | Previous Version | Graphics & Text | Print | Product List | Glossary On
Versions: 1 2 3 4 5 6 7 8 9 10 11 12 13 14 15 16 17
000
FTUS43 KTOP 031723
TAFFOE
TAF
KFOE 031723Z 0318/0418 19014G20KT P6SM SCT250
     FM040100 17008KT P6SM FEW150
     FM041500 19013G19KT P6SM FEW250=

USA.gov is the U.S. government's official web portal to all federal, state and local government web resources and services.